createdAt,value
2019-03-01T00:01:34.482Z,81.36
2019-03-01T00:05:42.383Z,81.86
2019-03-01T00:09:34.996Z,81.22
2019-03-01T00:13:50.373Z,81.19
2019-03-01T00:17:39.926Z,81.10
2019-03-01T00:21:35.639Z,80.95
2019-03-01T00:25:42.819Z,80.83
2019-03-01T00:29:24.449Z,80.41
2019-03-01T00:33:20.339Z,81.48
2019-03-01T00:37:13.849Z,80.28
2019-03-01T00:41:05.750Z,80.29
2019-03-01T00:44:29.700Z,80.15
2019-03-01T00:47:37.139Z,80.01
2019-03-01T00:50:44.734Z,79.80
2019-03-01T00:53:51.922Z,79.27
2019-03-01T00:56:59.876Z,79.67
2019-03-01T01:00:15.879Z,77.88
2019-03-01T01:03:23.171Z,78.60
2019-03-01T01:06:30.606Z,78.97
2019-03-01T01:09:38.260Z,81.32
2019-03-01T01:12:45.975Z,84.55
2019-03-01T01:15:53.246Z,87.14
2019-03-01T01:19:00.823Z,87.80
2019-03-01T01:22:08.552Z,86.83
2019-03-01T01:25:15.919Z,88.22
2019-03-01T01:28:23.084Z,89.14
2019-03-01T01:31:30.461Z,88.67
2019-03-01T01:34:37.851Z,88.22
2019-03-01T01:37:45.575Z,87.04
2019-03-01T01:40:52.974Z,85.46
2019-03-01T01:44:00.536Z,84.73
2019-03-01T01:47:08.313Z,84.11
2019-03-01T01:50:16.029Z,84.25
2019-03-01T01:53:23.619Z,85.02
2019-03-01T01:56:31.105Z,84.20
2019-03-01T01:59:38.808Z,83.88
2019-03-01T02:02:46.314Z,83.88
2019-03-01T02:05:54.041Z,85.02
2019-03-01T02:09:01.414Z,84.77
2019-03-01T02:12:09.204Z,83.61
2019-03-01T02:15:16.587Z,82.90
2019-03-01T02:18:23.963Z,83.54
2019-03-01T02:21:31.595Z,82.87
2019-03-01T02:24:39.088Z,83.28
2019-03-01T02:27:46.583Z,82.54
2019-03-01T02:30:54.997Z,82.83
2019-03-01T02:34:02.306Z,82.88
2019-03-01T02:37:11.732Z,83.28
2019-03-01T02:40:19.227Z,83.29
2019-03-01T02:43:26.689Z,83.56
2019-03-01T02:46:33.970Z,83.02
2019-03-01T02:49:41.343Z,83.13
2019-03-01T02:52:48.716Z,83.04
2019-03-01T02:55:56.179Z,83.22
2019-03-01T02:59:03.698Z,82.25
2019-03-01T03:02:11.408Z,82.60
2019-03-01T03:05:18.857Z,82.72
2019-03-01T03:08:26.299Z,82.91
2019-03-01T03:11:33.573Z,82.48
2019-03-01T03:14:40.881Z,82.54
2019-03-01T03:17:48.627Z,81.93
2019-03-01T03:20:56.273Z,81.95
2019-03-01T03:24:04.127Z,81.63
2019-03-01T03:27:12.799Z,80.82
2019-03-01T03:30:20.469Z,81.78
2019-03-01T03:33:28.177Z,81.40
2019-03-01T03:36:35.696Z,81.76
2019-03-01T03:39:43.053Z,81.30
2019-03-01T03:42:50.963Z,79.60
2019-03-01T03:45:58.889Z,80.37
2019-03-01T03:49:06.572Z,80.78
2019-03-01T03:52:13.767Z,81.23
2019-03-01T03:55:21.385Z,81.08
2019-03-01T03:58:29.080Z,79.87
2019-03-01T04:01:36.577Z,80.70
2019-03-01T04:04:44.065Z,79.95
2019-03-01T04:07:51.453Z,81.58
2019-03-01T04:10:58.931Z,83.78
2019-03-01T04:14:06.214Z,84.47
2019-03-01T04:17:14.024Z,84.34
2019-03-01T04:20:21.543Z,84.77
2019-03-01T04:23:29.086Z,85.89
2019-03-01T04:26:36.365Z,87.58
2019-03-01T04:29:45.448Z,88.28
2019-03-01T04:32:52.855Z,88.63
2019-03-01T04:36:00.122Z,89.61
2019-03-01T04:39:07.671Z,89.90
2019-03-01T04:42:15.348Z,90.58
2019-03-01T04:45:23.990Z,89.88
2019-03-01T04:48:32.546Z,90.62
2019-03-01T04:51:40.494Z,90.95
2019-03-01T04:54:49.996Z,91.38
2019-03-01T04:57:58.732Z,90.33
2019-03-01T05:01:06.301Z,91.79
2019-03-01T05:04:13.572Z,91.83
2019-03-01T05:07:21.141Z,91.37
2019-03-01T05:10:28.845Z,90.51
2019-03-01T05:13:36.340Z,90.48
2019-03-01T05:16:43.822Z,89.32
2019-03-01T05:19:51.847Z,89.25
2019-03-01T05:22:59.391Z,90.04
2019-03-01T05:26:06.791Z,89.57
2019-03-01T05:29:14.301Z,87.69
2019-03-01T05:32:21.617Z,86.59
2019-03-01T05:35:28.890Z,87.30
2019-03-01T05:38:36.617Z,86.93
2019-03-01T05:42:05.744Z,84.96
2019-03-01T05:45:17.025Z,86.80
2019-03-01T05:48:24.337Z,86.32
2019-03-01T05:51:37.107Z,85.07
2019-03-01T05:54:45.301Z,86.35
2019-03-01T05:58:47.445Z,89.79
2019-03-01T06:03:05.868Z,93.10
2019-03-01T06:06:17.057Z,98.00
2019-03-01T06:10:06.985Z,100.00
2019-03-01T06:14:00.006Z,100.00
2019-03-01T06:18:26.043Z,100.00
2019-03-01T06:22:35.373Z,100.00
2019-03-01T06:26:13.989Z,100.00
2019-03-01T06:29:50.717Z,100.00
2019-03-01T06:33:37.302Z,100.00
2019-03-01T06:37:22.297Z,100.00
2019-03-01T06:41:39.731Z,100.00
2019-03-01T06:45:50.842Z,100.00
2019-03-01T06:49:17.711Z,100.00
2019-03-01T06:52:25.089Z,100.00
2019-03-01T06:55:56.466Z,100.00
2019-03-01T06:59:06.349Z,100.00
2019-03-01T07:02:18.387Z,100.00
2019-03-01T07:05:26.075Z,100.00
2019-03-01T07:08:33.402Z,100.00
2019-03-01T07:11:40.978Z,100.00
2019-03-01T07:14:49.180Z,100.00
2019-03-01T07:17:58.632Z,100.00
2019-03-01T07:21:06.437Z,100.00
2019-03-01T07:24:14.500Z,100.00
2019-03-01T07:27:22.223Z,100.00
2019-03-01T07:30:32.877Z,100.00
2019-03-01T07:33:40.052Z,100.00
2019-03-01T07:36:47.426Z,100.00
2019-03-01T07:39:54.634Z,100.00
2019-03-01T07:43:02.001Z,100.00
2019-03-01T07:46:09.888Z,100.00
2019-03-01T07:49:17.465Z,100.00
2019-03-01T07:52:24.890Z,100.00
2019-03-01T07:55:32.594Z,100.00
2019-03-01T07:58:39.758Z,100.00
2019-03-01T08:01:47.361Z,100.00
2019-03-01T08:04:55.158Z,100.00
2019-03-01T08:08:03.769Z,100.00
2019-03-01T08:11:12.073Z,100.00
2019-03-01T08:14:20.200Z,100.00
2019-03-01T08:17:31.619Z,100.00
2019-03-01T08:20:38.129Z,100.00
2019-03-01T08:23:46.060Z,100.00
2019-03-01T08:26:53.998Z,100.00
2019-03-01T08:30:02.008Z,100.00
2019-03-01T08:33:09.447Z,100.00
2019-03-01T08:36:17.056Z,100.00
2019-03-01T08:39:24.876Z,100.00
2019-03-01T08:42:32.682Z,100.00
2019-03-01T08:45:41.641Z,100.00
2019-03-01T08:48:48.828Z,100.00
2019-03-01T08:51:58.491Z,100.00
2019-03-01T08:55:07.823Z,100.00
2019-03-01T08:58:15.514Z,100.00
2019-03-01T09:01:23.839Z,100.00
2019-03-01T09:04:37.562Z,100.00
2019-03-01T09:07:40.987Z,100.00
2019-03-01T09:10:48.457Z,100.00
2019-03-01T09:13:55.696Z,100.00
2019-03-01T09:17:04.160Z,100.00
2019-03-01T09:20:13.458Z,100.00
2019-03-01T09:23:25.304Z,100.00
2019-03-01T09:26:30.329Z,100.00
2019-03-01T09:29:41.498Z,100.00
2019-03-01T09:32:46.943Z,100.00
2019-03-01T09:36:05.966Z,100.00
2019-03-01T09:39:14.431Z,100.00
2019-03-01T09:42:22.915Z,100.00
2019-03-01T09:45:36.203Z,100.00
2019-03-01T09:48:40.059Z,100.00
2019-03-01T09:51:49.892Z,100.00
2019-03-01T09:54:57.054Z,100.00
2019-03-01T09:58:04.577Z,100.00
2019-03-01T10:01:16.888Z,100.00
2019-03-01T10:04:24.222Z,100.00
2019-03-01T10:07:31.668Z,100.00
2019-03-01T10:10:39.448Z,100.00
2019-03-01T10:13:46.856Z,100.00
2019-03-01T10:16:55.261Z,100.00
2019-03-01T10:20:03.921Z,100.00
2019-03-01T10:23:14.435Z,100.00
2019-03-01T10:26:21.840Z,100.00
2019-03-01T10:29:29.499Z,100.00
2019-03-01T10:32:37.113Z,100.00
2019-03-01T10:35:44.618Z,100.00
2019-03-01T10:38:52.251Z,100.00
2019-03-01T10:41:59.429Z,100.00
2019-03-01T10:45:11.188Z,100.00
2019-03-01T10:48:18.529Z,100.00
2019-03-01T10:51:26.709Z,100.00
2019-03-01T10:54:34.155Z,100.00
2019-03-01T10:57:41.930Z,100.00
2019-03-01T11:00:49.738Z,100.00
2019-03-01T11:03:57.171Z,100.00
2019-03-01T11:07:05.341Z,100.00
2019-03-01T11:10:18.106Z,100.00
2019-03-01T11:13:25.444Z,100.00
2019-03-01T11:16:34.618Z,100.00
2019-03-01T11:19:42.149Z,100.00
2019-03-01T11:22:49.801Z,100.00
2019-03-01T11:25:56.969Z,100.00
2019-03-01T11:29:04.531Z,100.00
2019-03-01T11:32:11.813Z,100.00
2019-03-01T11:35:19.099Z,100.00
2019-03-01T11:38:26.476Z,99.24
2019-03-01T11:41:33.993Z,100.00
2019-03-01T11:44:41.263Z,100.00
2019-03-01T11:47:48.956Z,100.00
2019-03-01T11:50:56.233Z,100.00
2019-03-01T11:54:04.138Z,100.00
2019-03-01T11:57:11.646Z,100.00
2019-03-01T12:00:22.996Z,100.00
2019-03-01T12:03:33.008Z,100.00
2019-03-01T12:06:40.529Z,100.00
2019-03-01T12:09:47.983Z,100.00
2019-03-01T12:12:55.460Z,100.00
2019-03-01T12:16:02.788Z,100.00
2019-03-01T12:19:09.962Z,100.00
2019-03-01T12:22:17.583Z,100.00
2019-03-01T12:25:24.926Z,100.00
2019-03-01T12:28:34.041Z,100.00
2019-03-01T12:31:41.313Z,99.08
2019-03-01T12:34:48.603Z,98.85
2019-03-01T12:37:56.065Z,98.13
2019-03-01T12:41:03.961Z,98.37
2019-03-01T12:44:11.881Z,99.97
2019-03-01T12:47:22.221Z,100.00
2019-03-01T12:50:30.888Z,99.56
2019-03-01T12:53:38.516Z,100.00
2019-03-01T12:56:45.749Z,100.00
2019-03-01T12:59:53.899Z,100.00
2019-03-01T13:03:05.118Z,100.00
2019-03-01T13:06:11.468Z,97.55
2019-03-01T13:09:18.663Z,96.49
2019-03-01T13:12:26.938Z,96.75
2019-03-01T13:15:34.929Z,97.29
2019-03-01T13:18:42.522Z,95.98
2019-03-01T13:21:50.243Z,93.98
2019-03-01T13:24:57.873Z,96.03
2019-03-01T13:28:05.633Z,94.87
2019-03-01T13:31:13.136Z,95.33
2019-03-01T13:34:20.306Z,94.76
2019-03-01T13:37:27.837Z,93.86
2019-03-01T13:40:35.616Z,92.82
2019-03-01T13:43:42.801Z,91.51
2019-03-01T13:46:50.612Z,93.02
2019-03-01T13:49:58.106Z,95.46
2019-03-01T13:53:06.623Z,95.44
2019-03-01T13:56:14.849Z,96.95
2019-03-01T13:59:23.540Z,97.54
2019-03-01T14:02:30.983Z,96.14
2019-03-01T14:05:38.514Z,97.61
2019-03-01T14:08:46.179Z,96.45
2019-03-01T14:11:55.957Z,97.61
2019-03-01T14:15:04.842Z,97.27
2019-03-01T14:18:12.389Z,95.38
2019-03-01T14:21:20.178Z,95.94
2019-03-01T14:24:29.559Z,96.94
2019-03-01T14:27:37.102Z,97.39
2019-03-01T14:30:44.491Z,97.31
2019-03-01T14:33:51.822Z,96.25
2019-03-01T14:36:59.775Z,96.91
2019-03-01T14:40:09.873Z,96.20
2019-03-01T14:43:20.345Z,97.82
2019-03-01T14:46:26.722Z,96.76
2019-03-01T14:49:33.931Z,96.92
2019-03-01T14:52:41.741Z,98.22
2019-03-01T14:55:55.724Z,96.55
2019-03-01T14:59:20.822Z,96.30
2019-03-01T15:02:47.885Z,95.98
2019-03-01T15:05:55.890Z,98.10
2019-03-01T15:09:05.942Z,96.84
2019-03-01T15:12:19.816Z,97.09
2019-03-01T15:15:25.818Z,97.17
2019-03-01T15:18:32.608Z,98.28
2019-03-01T15:21:40.809Z,98.80
2019-03-01T15:24:48.460Z,98.65
2019-03-01T15:27:55.606Z,96.67
2019-03-01T15:31:02.960Z,97.43
2019-03-01T15:34:10.213Z,97.99
2019-03-01T15:37:17.653Z,98.77
2019-03-01T15:40:27.747Z,98.63
2019-03-01T15:43:34.679Z,99.67
2019-03-01T15:46:41.967Z,100.00
2019-03-01T15:49:51.515Z,100.00
2019-03-01T15:52:58.301Z,100.00
2019-03-01T15:56:06.923Z,100.00
2019-03-01T15:59:14.929Z,100.00
2019-03-01T16:02:22.567Z,100.00
2019-03-01T16:05:30.861Z,100.00
2019-03-01T16:08:38.729Z,100.00
2019-03-01T16:11:46.441Z,100.00
2019-03-01T16:14:57.402Z,100.00
2019-03-01T16:18:03.935Z,100.00
2019-03-01T16:21:11.481Z,100.00
2019-03-01T16:24:18.935Z,100.00
2019-03-01T16:27:26.277Z,100.00
2019-03-01T16:30:33.786Z,100.00
2019-03-01T16:33:41.237Z,100.00
2019-03-01T16:36:51.361Z,100.00
2019-03-01T16:40:00.355Z,100.00
2019-03-01T16:43:08.440Z,100.00
2019-03-01T16:46:15.814Z,100.00
2019-03-01T16:49:27.088Z,100.00
2019-03-01T16:52:32.727Z,100.00
2019-03-01T16:55:40.448Z,100.00
2019-03-01T16:58:47.950Z,100.00
2019-03-01T17:01:55.296Z,100.00
2019-03-01T17:05:03.606Z,100.00
2019-03-01T17:08:12.395Z,100.00
2019-03-01T17:11:20.045Z,100.00
2019-03-01T17:14:27.530Z,100.00
2019-03-01T17:17:36.911Z,100.00
2019-03-01T17:20:44.148Z,100.00
2019-03-01T17:23:51.336Z,100.00
2019-03-01T17:27:02.053Z,100.00
2019-03-01T17:30:14.330Z,100.00
2019-03-01T17:33:21.532Z,100.00
2019-03-01T17:36:29.444Z,100.00
2019-03-01T17:39:37.757Z,100.00
2019-03-01T17:42:46.785Z,100.00
2019-03-01T17:45:57.465Z,100.00
2019-03-01T17:49:03.800Z,100.00
2019-03-01T17:52:12.038Z,100.00
2019-03-01T17:55:20.917Z,100.00
2019-03-01T17:58:29.363Z,100.00
2019-03-01T18:01:39.182Z,100.00
2019-03-01T18:04:46.742Z,100.00
2019-03-01T18:07:55.203Z,100.00
2019-03-01T18:11:05.382Z,100.00
2019-03-01T18:14:12.446Z,100.00
2019-03-01T18:17:20.087Z,100.00
2019-03-01T18:20:27.892Z,100.00
2019-03-01T18:23:38.010Z,100.00
2019-03-01T18:26:44.899Z,100.00
2019-03-01T18:29:52.081Z,100.00
2019-03-01T18:32:59.870Z,100.00
2019-03-01T18:36:08.172Z,100.00
2019-03-01T18:39:15.567Z,100.00
2019-03-01T18:42:23.297Z,100.00
2019-03-01T18:45:30.931Z,100.00
2019-03-01T18:48:40.568Z,100.00
2019-03-01T18:51:48.764Z,100.00
2019-03-01T18:54:56.315Z,100.00
2019-03-01T18:58:03.690Z,100.00
2019-03-01T19:01:12.107Z,100.00
2019-03-01T19:04:29.366Z,100.00
2019-03-01T19:07:28.948Z,100.00
2019-03-01T19:10:36.848Z,100.00
2019-03-01T19:13:44.125Z,100.00
2019-03-01T19:16:51.808Z,100.00
2019-03-01T19:20:01.882Z,100.00
2019-03-01T19:23:09.855Z,100.00
2019-03-01T19:26:17.607Z,100.00
2019-03-01T19:29:25.093Z,100.00
2019-03-01T19:32:32.901Z,100.00
2019-03-01T19:35:40.684Z,100.00
2019-03-01T19:38:48.774Z,100.00
2019-03-01T19:41:58.029Z,100.00
2019-03-01T19:45:07.341Z,100.00
2019-03-01T19:48:15.048Z,100.00
2019-03-01T19:51:22.503Z,100.00
2019-03-01T19:54:32.323Z,100.00
2019-03-01T19:57:39.873Z,100.00
2019-03-01T20:00:48.149Z,100.00
2019-03-01T20:03:57.137Z,100.00
2019-03-01T20:07:04.832Z,100.00
2019-03-01T20:10:15.094Z,100.00
2019-03-01T20:13:23.529Z,100.00
2019-03-01T20:16:31.029Z,100.00
2019-03-01T20:19:38.568Z,100.00
2019-03-01T20:22:46.030Z,100.00
2019-03-01T20:25:53.400Z,100.00
2019-03-01T20:29:00.781Z,100.00
2019-03-01T20:32:08.258Z,100.00
2019-03-01T20:35:15.979Z,100.00
2019-03-01T20:38:23.520Z,100.00
2019-03-01T20:41:30.836Z,100.00
2019-03-01T20:44:38.415Z,100.00
2019-03-01T20:47:46.117Z,100.00
2019-03-01T20:50:53.270Z,100.00
2019-03-01T20:54:01.117Z,100.00
2019-03-01T20:57:08.838Z,100.00
2019-03-01T21:00:16.872Z,100.00
2019-03-01T21:03:29.849Z,100.00
2019-03-01T21:06:34.095Z,100.00
2019-03-01T21:09:41.784Z,100.00
2019-03-01T21:12:49.830Z,100.00
2019-03-01T21:15:57.661Z,100.00
2019-03-01T21:19:05.847Z,100.00
2019-03-01T21:22:17.430Z,100.00
2019-03-01T21:25:24.933Z,100.00
2019-03-01T21:28:33.699Z,100.00
2019-03-01T21:31:42.074Z,100.00
2019-03-01T21:34:49.716Z,100.00
2019-03-01T21:37:57.247Z,100.00
2019-03-01T21:41:06.370Z,100.00
2019-03-01T21:44:14.494Z,100.00
2019-03-01T21:47:22.370Z,100.00
2019-03-01T21:50:29.927Z,100.00
2019-03-01T21:53:39.872Z,100.00
2019-03-01T21:56:55.732Z,100.00
2019-03-01T21:59:56.850Z,100.00
2019-03-01T22:03:04.877Z,100.00
2019-03-01T22:06:13.009Z,100.00
2019-03-01T22:09:24.331Z,100.00
2019-03-01T22:12:30.082Z,100.00
2019-03-01T22:15:37.478Z,100.00
2019-03-01T22:18:44.625Z,100.00
2019-03-01T22:21:54.691Z,100.00
2019-03-01T22:25:02.214Z,100.00
2019-03-01T22:28:09.998Z,100.00
2019-03-01T22:31:18.431Z,100.00
2019-03-01T22:34:27.432Z,100.00
2019-03-01T22:37:34.952Z,100.00
2019-03-01T22:40:42.237Z,100.00
2019-03-01T22:43:49.442Z,100.00
2019-03-01T22:46:57.875Z,100.00
2019-03-01T22:50:07.906Z,100.00
2019-03-01T22:53:15.530Z,100.00
2019-03-01T22:56:23.509Z,100.00
2019-03-01T22:59:31.529Z,100.00
2019-03-01T23:02:43.555Z,100.00
2019-03-01T23:05:50.692Z,100.00
2019-03-01T23:08:58.189Z,100.00
2019-03-01T23:12:08.088Z,100.00
2019-03-01T23:15:15.703Z,100.00
2019-03-01T23:18:23.006Z,100.00
2019-03-01T23:21:32.677Z,100.00
2019-03-01T23:24:39.769Z,100.00
2019-03-01T23:27:48.184Z,100.00
2019-03-01T23:30:55.494Z,100.00
2019-03-01T23:34:03.615Z,100.00
2019-03-01T23:37:12.361Z,100.00
2019-03-01T23:40:19.916Z,100.00
2019-03-01T23:43:27.532Z,100.00
2019-03-01T23:46:36.181Z,100.00
2019-03-01T23:49:43.575Z,100.00
2019-03-01T23:52:51.021Z,100.00
2019-03-01T23:55:58.290Z,100.00
2019-03-01T23:59:06.236Z,100.00
